Dyffryn Ardudwy, United Kingdom
Current Conditions -  °F | °C
As of 11:50 PM on Saturday 20 Dec 2014 (Local Time) from EGOV Reporting Station
Broken Clouds Broken Clouds  
Wind Chill: 42°   Ceiling: 2800
Heat Index: 48°   Visibility: 6mi
Dew Point: 39°   Wind: 16mph
Humidity: 71%   Direction: 240°WSW
Pressure: 30.33"   Gusts: NA
Location:  52.79°N, 4.1°W
Report Text: EGOV 202350Z AUTO 24014KT 9999 BKN028/// 09/04 Q1027
Loading
Personal Weather Stations






























Interactive Weather Map New forecast layout! Learn more

10-Day Weather Forecast

Advertisements
Track Severe Weather on mobile